sensor_id;sensor_type;location;lat;lon;timestamp;P1;durP1;ratioP1;P2;durP2;ratioP2
57225;SDS011;43082;43.568;22.256;2022-07-03T00:00:38;9.60;;;4.30;;
57225;SDS011;43082;43.568;22.256;2022-07-03T00:03:03;11.10;;;4.43;;
57225;SDS011;43082;43.568;22.256;2022-07-03T00:05:29;6.80;;;3.88;;
57225;SDS011;43082;43.568;22.256;2022-07-03T00:07:54;10.73;;;5.13;;
57225;SDS011;43082;43.568;22.256;2022-07-03T00:10:20;13.88;;;6.95;;
57225;SDS011;43082;43.568;22.256;2022-07-03T00:12:45;9.65;;;5.43;;
57225;SDS011;43082;43.568;22.256;2022-07-03T00:15:11;12.25;;;6.22;;
57225;SDS011;43082;43.568;22.256;2022-07-03T00:17:36;10.93;;;4.70;;
57225;SDS011;43082;43.568;22.256;2022-07-03T00:20:02;7.65;;;4.65;;
57225;SDS011;43082;43.568;22.256;2022-07-03T00:22:28;8.80;;;4.20;;
57225;SDS011;43082;43.568;22.256;2022-07-03T00:24:58;12.50;;;4.30;;
57225;SDS011;43082;43.568;22.256;2022-07-03T00:27:27;7.57;;;4.05;;
57225;SDS011;43082;43.568;22.256;2022-07-03T00:29:55;12.55;;;4.03;;
57225;SDS011;43082;43.568;22.256;2022-07-03T00:32:22;14.10;;;4.75;;
57225;SDS011;43082;43.568;22.256;2022-07-03T00:34:52;8.38;;;3.85;;
57225;SDS011;43082;43.568;22.256;2022-07-03T00:37:19;10.02;;;4.25;;
57225;SDS011;43082;43.568;22.256;2022-07-03T00:39:45;7.68;;;4.00;;
57225;SDS011;43082;43.568;22.256;2022-07-03T00:42:11;9.13;;;4.10;;
57225;SDS011;43082;43.568;22.256;2022-07-03T00:47:13;6.68;;;3.90;;
57225;SDS011;43082;43.568;22.256;2022-07-03T00:49:39;9.45;;;4.07;;
57225;SDS011;43082;43.568;22.256;2022-07-03T00:52:05;9.20;;;4.10;;
57225;SDS011;43082;43.568;22.256;2022-07-03T00:54:34;7.30;;;4.10;;
57225;SDS011;43082;43.568;22.256;2022-07-03T00:57:01;9.43;;;4.25;;
57225;SDS011;43082;43.568;22.256;2022-07-03T00:59:27;8.68;;;4.28;;
57225;SDS011;43082;43.568;22.256;2022-07-03T01:01:57;11.65;;;5.85;;
57225;SDS011;43082;43.568;22.256;2022-07-03T01:07:12;12.18;;;5.85;;
57225;SDS011;43082;43.568;22.256;2022-07-03T01:17:52;8.18;;;4.50;;
57225;SDS011;43082;43.568;22.256;2022-07-03T01:20:40;9.70;;;4.20;;
57225;SDS011;43082;43.568;22.256;2022-07-03T01:23:10;9.75;;;5.03;;
57225;SDS011;43082;43.568;22.256;2022-07-03T01:25:46;7.55;;;4.50;;
57225;SDS011;43082;43.568;22.256;2022-07-03T01:28:14;8.73;;;4.38;;
57225;SDS011;43082;43.568;22.256;2022-07-03T01:30:46;7.22;;;4.10;;
57225;SDS011;43082;43.568;22.256;2022-07-03T01:33:25;11.57;;;4.05;;
57225;SDS011;43082;43.568;22.256;2022-07-03T01:35:57;8.35;;;4.10;;
57225;SDS011;43082;43.568;22.256;2022-07-03T01:38:27;7.55;;;4.20;;
57225;SDS011;43082;43.568;22.256;2022-07-03T01:40:53;10.73;;;3.97;;
57225;SDS011;43082;43.568;22.256;2022-07-03T01:43:20;11.95;;;4.28;;
57225;SDS011;43082;43.568;22.256;2022-07-03T01:45:50;9.63;;;4.07;;
57225;SDS011;43082;43.568;22.256;2022-07-03T01:48:15;13.45;;;4.47;;
57225;SDS011;43082;43.568;22.256;2022-07-03T01:50:41;10.85;;;4.13;;
57225;SDS011;43082;43.568;22.256;2022-07-03T01:53:08;12.38;;;7.65;;
57225;SDS011;43082;43.568;22.256;2022-07-03T01:55:37;7.57;;;3.92;;
57225;SDS011;43082;43.568;22.256;2022-07-03T01:58:04;9.50;;;4.22;;
57225;SDS011;43082;43.568;22.256;2022-07-03T02:00:30;8.88;;;4.18;;
57225;SDS011;43082;43.568;22.256;2022-07-03T02:08:25;12.70;;;4.63;;
57225;SDS011;43082;43.568;22.256;2022-07-03T02:11:08;7.47;;;3.90;;
57225;SDS011;43082;43.568;22.256;2022-07-03T02:16:26;8.75;;;4.32;;
57225;SDS011;43082;43.568;22.256;2022-07-03T02:19:12;9.30;;;5.03;;
57225;SDS011;43082;43.568;22.256;2022-07-03T02:21:39;13.00;;;3.85;;
57225;SDS011;43082;43.568;22.256;2022-07-03T02:27:09;8.90;;;3.85;;
57225;SDS011;43082;43.568;22.256;2022-07-03T02:29:41;11.63;;;3.60;;
57225;SDS011;43082;43.568;22.256;2022-07-03T02:32:12;12.23;;;3.50;;
57225;SDS011;43082;43.568;22.256;2022-07-03T02:35:08;9.10;;;4.07;;
57225;SDS011;43082;43.568;22.256;2022-07-03T02:38:19;7.10;;;3.33;;
57225;SDS011;43082;43.568;22.256;2022-07-03T02:45:42;7.20;;;3.97;;
57225;SDS011;43082;43.568;22.256;2022-07-03T02:53:38;8.38;;;4.05;;
57225;SDS011;43082;43.568;22.256;2022-07-03T02:56:07;6.82;;;3.85;;
57225;SDS011;43082;43.568;22.256;2022-07-03T02:58:49;9.98;;;4.03;;
57225;SDS011;43082;43.568;22.256;2022-07-03T03:07:04;13.93;;;9.75;;
57225;SDS011;43082;43.568;22.256;2022-07-03T03:09:43;19.45;;;10.80;;
57225;SDS011;43082;43.568;22.256;2022-07-03T03:12:11;17.33;;;11.38;;
57225;SDS011;43082;43.568;22.256;2022-07-03T03:14:44;20.02;;;12.48;;
57225;SDS011;43082;43.568;22.256;2022-07-03T03:17:56;17.17;;;10.38;;
57225;SDS011;43082;43.568;22.256;2022-07-03T03:20:05;19.75;;;11.30;;
57225;SDS011;43082;43.568;22.256;2022-07-03T03:22:33;21.23;;;11.65;;
57225;SDS011;43082;43.568;22.256;2022-07-03T03:25:02;18.38;;;10.80;;
57225;SDS011;43082;43.568;22.256;2022-07-03T03:27:28;24.90;;;16.75;;
57225;SDS011;43082;43.568;22.256;2022-07-03T03:29:53;29.08;;;20.85;;
57225;SDS011;43082;43.568;22.256;2022-07-03T03:32:19;23.92;;;14.60;;
57225;SDS011;43082;43.568;22.256;2022-07-03T03:34:45;11.95;;;6.30;;
57225;SDS011;43082;43.568;22.256;2022-07-03T03:37:12;11.07;;;4.32;;
57225;SDS011;43082;43.568;22.256;2022-07-03T03:39:37;8.38;;;5.20;;
57225;SDS011;43082;43.568;22.256;2022-07-03T03:42:03;12.68;;;4.45;;
57225;SDS011;43082;43.568;22.256;2022-07-03T03:44:29;11.77;;;3.95;;
57225;SDS011;43082;43.568;22.256;2022-07-03T03:46:55;8.45;;;4.00;;
57225;SDS011;43082;43.568;22.256;2022-07-03T03:49:21;10.57;;;4.35;;
57225;SDS011;43082;43.568;22.256;2022-07-03T03:51:46;6.88;;;3.85;;
57225;SDS011;43082;43.568;22.256;2022-07-03T03:54:12;8.70;;;3.58;;
57225;SDS011;43082;43.568;22.256;2022-07-03T03:56:37;8.82;;;4.10;;
57225;SDS011;43082;43.568;22.256;2022-07-03T03:59:03;10.43;;;3.83;;
57225;SDS011;43082;43.568;22.256;2022-07-03T04:01:28;9.00;;;3.90;;
57225;SDS011;43082;43.568;22.256;2022-07-03T04:03:54;8.60;;;4.18;;
57225;SDS011;43082;43.568;22.256;2022-07-03T04:06:19;11.98;;;4.32;;
57225;SDS011;43082;43.568;22.256;2022-07-03T04:08:45;8.77;;;3.90;;
57225;SDS011;43082;43.568;22.256;2022-07-03T04:11:11;8.73;;;4.22;;
57225;SDS011;43082;43.568;22.256;2022-07-03T04:13:36;9.70;;;4.00;;
57225;SDS011;43082;43.568;22.256;2022-07-03T04:16:02;10.00;;;4.05;;
57225;SDS011;43082;43.568;22.256;2022-07-03T04:18:27;10.55;;;3.90;;
57225;SDS011;43082;43.568;22.256;2022-07-03T04:20:53;7.95;;;4.32;;
57225;SDS011;43082;43.568;22.256;2022-07-03T04:23:18;13.90;;;4.30;;
57225;SDS011;43082;43.568;22.256;2022-07-03T04:25:44;8.45;;;4.60;;
57225;SDS011;43082;43.568;22.256;2022-07-03T04:28:10;10.98;;;4.50;;
57225;SDS011;43082;43.568;22.256;2022-07-03T04:30:36;11.48;;;4.60;;
57225;SDS011;43082;43.568;22.256;2022-07-03T04:33:01;10.02;;;4.38;;
57225;SDS011;43082;43.568;22.256;2022-07-03T04:35:27;9.18;;;4.30;;
57225;SDS011;43082;43.568;22.256;2022-07-03T04:37:53;9.75;;;4.18;;
57225;SDS011;43082;43.568;22.256;2022-07-03T04:40:18;9.23;;;4.05;;
57225;SDS011;43082;43.568;22.256;2022-07-03T04:42:44;9.70;;;4.38;;
57225;SDS011;43082;43.568;22.256;2022-07-03T04:45:09;8.98;;;4.47;;
57225;SDS011;43082;43.568;22.256;2022-07-03T04:47:35;9.48;;;4.38;;
57225;SDS011;43082;43.568;22.256;2022-07-03T04:50:00;9.10;;;3.97;;
57225;SDS011;43082;43.568;22.256;2022-07-03T04:52:26;7.10;;;4.35;;
57225;SDS011;43082;43.568;22.256;2022-07-03T04:54:51;8.23;;;4.32;;
57225;SDS011;43082;43.568;22.256;2022-07-03T04:57:16;11.13;;;4.50;;
57225;SDS011;43082;43.568;22.256;2022-07-03T04:59:42;14.85;;;4.95;;
57225;SDS011;43082;43.568;22.256;2022-07-03T05:02:08;8.55;;;4.18;;
57225;SDS011;43082;43.568;22.256;2022-07-03T05:04:33;8.45;;;4.30;;
57225;SDS011;43082;43.568;22.256;2022-07-03T05:06:59;9.18;;;4.32;;
57225;SDS011;43082;43.568;22.256;2022-07-03T05:09:24;7.22;;;4.32;;
57225;SDS011;43082;43.568;22.256;2022-07-03T05:11:50;8.57;;;3.97;;
57225;SDS011;43082;43.568;22.256;2022-07-03T05:14:15;8.80;;;4.20;;
57225;SDS011;43082;43.568;22.256;2022-07-03T05:16:41;9.75;;;4.47;;
57225;SDS011;43082;43.568;22.256;2022-07-03T05:19:06;10.07;;;4.47;;
57225;SDS011;43082;43.568;22.256;2022-07-03T05:21:32;8.95;;;4.30;;
57225;SDS011;43082;43.568;22.256;2022-07-03T05:23:57;8.07;;;4.63;;
57225;SDS011;43082;43.568;22.256;2022-07-03T05:26:23;11.90;;;4.43;;
57225;SDS011;43082;43.568;22.256;2022-07-03T05:28:48;10.45;;;4.38;;
57225;SDS011;43082;43.568;22.256;2022-07-03T05:31:14;8.85;;;4.97;;
57225;SDS011;43082;43.568;22.256;2022-07-03T05:33:40;10.05;;;4.82;;
57225;SDS011;43082;43.568;22.256;2022-07-03T05:36:05;10.88;;;5.22;;
57225;SDS011;43082;43.568;22.256;2022-07-03T05:38:31;9.25;;;5.45;;
57225;SDS011;43082;43.568;22.256;2022-07-03T05:41:15;10.35;;;5.32;;
57225;SDS011;43082;43.568;22.256;2022-07-03T05:43:41;12.40;;;5.50;;
57225;SDS011;43082;43.568;22.256;2022-07-03T05:46:06;10.68;;;4.90;;
57225;SDS011;43082;43.568;22.256;2022-07-03T05:48:32;11.05;;;4.95;;
57225;SDS011;43082;43.568;22.256;2022-07-03T05:50:57;8.55;;;4.57;;
57225;SDS011;43082;43.568;22.256;2022-07-03T05:53:23;11.85;;;4.80;;
57225;SDS011;43082;43.568;22.256;2022-07-03T05:55:48;9.73;;;4.25;;
57225;SDS011;43082;43.568;22.256;2022-07-03T05:58:14;9.00;;;4.35;;
57225;SDS011;43082;43.568;22.256;2022-07-03T06:00:39;12.15;;;5.40;;
57225;SDS011;43082;43.568;22.256;2022-07-03T06:03:05;6.72;;;4.05;;
57225;SDS011;43082;43.568;22.256;2022-07-03T06:05:30;13.95;;;5.00;;
57225;SDS011;43082;43.568;22.256;2022-07-03T06:07:57;6.95;;;4.05;;
57225;SDS011;43082;43.568;22.256;2022-07-03T06:10:23;8.75;;;4.50;;
57225;SDS011;43082;43.568;22.256;2022-07-03T06:12:49;11.30;;;4.55;;
57225;SDS011;43082;43.568;22.256;2022-07-03T06:15:14;8.45;;;4.00;;
57225;SDS011;43082;43.568;22.256;2022-07-03T06:17:40;10.40;;;4.50;;
57225;SDS011;43082;43.568;22.256;2022-07-03T06:20:05;13.60;;;4.78;;
57225;SDS011;43082;43.568;22.256;2022-07-03T06:22:31;8.85;;;4.15;;
57225;SDS011;43082;43.568;22.256;2022-07-03T06:24:57;10.35;;;4.35;;
57225;SDS011;43082;43.568;22.256;2022-07-03T06:27:23;6.80;;;3.97;;
57225;SDS011;43082;43.568;22.256;2022-07-03T06:29:48;8.40;;;4.43;;
57225;SDS011;43082;43.568;22.256;2022-07-03T06:32:17;9.77;;;4.75;;
57225;SDS011;43082;43.568;22.256;2022-07-03T06:34:43;8.50;;;4.35;;
57225;SDS011;43082;43.568;22.256;2022-07-03T06:37:09;9.52;;;4.32;;
57225;SDS011;43082;43.568;22.256;2022-07-03T06:39:35;7.97;;;4.00;;
57225;SDS011;43082;43.568;22.256;2022-07-03T06:42:00;8.23;;;4.20;;
57225;SDS011;43082;43.568;22.256;2022-07-03T06:44:26;9.10;;;4.00;;
57225;SDS011;43082;43.568;22.256;2022-07-03T06:46:51;7.68;;;4.00;;
57225;SDS011;43082;43.568;22.256;2022-07-03T06:49:17;6.75;;;3.92;;
57225;SDS011;43082;43.568;22.256;2022-07-03T06:51:42;8.82;;;4.20;;
57225;SDS011;43082;43.568;22.256;2022-07-03T06:54:08;6.43;;;3.72;;
57225;SDS011;43082;43.568;22.256;2022-07-03T06:56:33;9.35;;;4.57;;
57225;SDS011;43082;43.568;22.256;2022-07-03T06:58:59;8.02;;;4.25;;
57225;SDS011;43082;43.568;22.256;2022-07-03T07:01:24;7.75;;;3.88;;
57225;SDS011;43082;43.568;22.256;2022-07-03T07:03:50;7.82;;;3.92;;
57225;SDS011;43082;43.568;22.256;2022-07-03T07:06:15;7.88;;;4.30;;
57225;SDS011;43082;43.568;22.256;2022-07-03T07:08:41;8.00;;;4.47;;
57225;SDS011;43082;43.568;22.256;2022-07-03T07:11:06;8.55;;;4.70;;
57225;SDS011;43082;43.568;22.256;2022-07-03T07:13:31;8.18;;;4.22;;
57225;SDS011;43082;43.568;22.256;2022-07-03T07:15:57;8.90;;;4.40;;
57225;SDS011;43082;43.568;22.256;2022-07-03T07:18:22;8.32;;;4.40;;
57225;SDS011;43082;43.568;22.256;2022-07-03T07:20:48;7.20;;;3.97;;
57225;SDS011;43082;43.568;22.256;2022-07-03T07:23:13;8.70;;;4.70;;
57225;SDS011;43082;43.568;22.256;2022-07-03T07:25:39;8.07;;;4.10;;
57225;SDS011;43082;43.568;22.256;2022-07-03T07:28:04;8.77;;;4.03;;
57225;SDS011;43082;43.568;22.256;2022-07-03T07:30:30;9.38;;;3.92;;
57225;SDS011;43082;43.568;22.256;2022-07-03T07:32:55;11.35;;;4.43;;
57225;SDS011;43082;43.568;22.256;2022-07-03T07:35:20;8.55;;;4.28;;
57225;SDS011;43082;43.568;22.256;2022-07-03T07:37:46;9.55;;;4.25;;
57225;SDS011;43082;43.568;22.256;2022-07-03T07:40:13;9.50;;;4.43;;
57225;SDS011;43082;43.568;22.256;2022-07-03T07:42:39;7.15;;;4.32;;
57225;SDS011;43082;43.568;22.256;2022-07-03T07:45:04;7.65;;;4.07;;
57225;SDS011;43082;43.568;22.256;2022-07-03T07:47:30;8.43;;;4.10;;
57225;SDS011;43082;43.568;22.256;2022-07-03T07:49:56;11.27;;;4.38;;
57225;SDS011;43082;43.568;22.256;2022-07-03T07:52:21;6.60;;;4.15;;
57225;SDS011;43082;43.568;22.256;2022-07-03T07:54:49;8.02;;;4.75;;
57225;SDS011;43082;43.568;22.256;2022-07-03T07:57:14;9.45;;;6.25;;
57225;SDS011;43082;43.568;22.256;2022-07-03T07:59:40;7.28;;;4.57;;
57225;SDS011;43082;43.568;22.256;2022-07-03T08:02:05;7.97;;;4.70;;
57225;SDS011;43082;43.568;22.256;2022-07-03T08:04:49;8.80;;;6.17;;
57225;SDS011;43082;43.568;22.256;2022-07-03T08:07:33;8.20;;;5.30;;
57225;SDS011;43082;43.568;22.256;2022-07-03T08:09:58;8.02;;;4.50;;
57225;SDS011;43082;43.568;22.256;2022-07-03T08:12:24;9.50;;;5.30;;
57225;SDS011;43082;43.568;22.256;2022-07-03T08:14:49;8.50;;;5.00;;
57225;SDS011;43082;43.568;22.256;2022-07-03T08:17:15;9.60;;;4.80;;
57225;SDS011;43082;43.568;22.256;2022-07-03T08:19:40;9.48;;;4.82;;
57225;SDS011;43082;43.568;22.256;2022-07-03T08:22:06;8.85;;;4.45;;
57225;SDS011;43082;43.568;22.256;2022-07-03T08:24:31;7.85;;;4.50;;
57225;SDS011;43082;43.568;22.256;2022-07-03T08:26:57;8.70;;;4.75;;
57225;SDS011;43082;43.568;22.256;2022-07-03T08:29:24;7.03;;;4.40;;
57225;SDS011;43082;43.568;22.256;2022-07-03T08:31:49;8.82;;;4.57;;
57225;SDS011;43082;43.568;22.256;2022-07-03T08:34:15;10.07;;;6.25;;
57225;SDS011;43082;43.568;22.256;2022-07-03T08:36:41;11.05;;;5.95;;
57225;SDS011;43082;43.568;22.256;2022-07-03T08:39:06;8.23;;;4.97;;
57225;SDS011;43082;43.568;22.256;2022-07-03T08:41:32;8.05;;;4.90;;
57225;SDS011;43082;43.568;22.256;2022-07-03T08:43:59;9.10;;;4.28;;
57225;SDS011;43082;43.568;22.256;2022-07-03T08:46:25;7.72;;;4.85;;
57225;SDS011;43082;43.568;22.256;2022-07-03T08:48:51;8.10;;;4.57;;
57225;SDS011;43082;43.568;22.256;2022-07-03T08:51:19;7.35;;;4.65;;
57225;SDS011;43082;43.568;22.256;2022-07-03T08:53:44;8.10;;;4.47;;
57225;SDS011;43082;43.568;22.256;2022-07-03T08:56:12;8.38;;;4.70;;
57225;SDS011;43082;43.568;22.256;2022-07-03T08:58:38;10.52;;;4.40;;
57225;SDS011;43082;43.568;22.256;2022-07-03T09:01:03;7.88;;;4.28;;
57225;SDS011;43082;43.568;22.256;2022-07-03T09:03:29;8.05;;;4.60;;
57225;SDS011;43082;43.568;22.256;2022-07-03T09:05:56;7.90;;;4.65;;
57225;SDS011;43082;43.568;22.256;2022-07-03T09:08:21;12.23;;;8.88;;
57225;SDS011;43082;43.568;22.256;2022-07-03T09:10:47;8.80;;;4.22;;
57225;SDS011;43082;43.568;22.256;2022-07-03T09:13:13;8.20;;;4.50;;
57225;SDS011;43082;43.568;22.256;2022-07-03T09:15:39;9.15;;;4.40;;
57225;SDS011;43082;43.568;22.256;2022-07-03T09:18:05;8.27;;;5.53;;
57225;SDS011;43082;43.568;22.256;2022-07-03T09:20:35;10.48;;;4.22;;
57225;SDS011;43082;43.568;22.256;2022-07-03T09:23:12;12.15;;;6.88;;
57225;SDS011;43082;43.568;22.256;2022-07-03T09:28:19;8.90;;;4.80;;
57225;SDS011;43082;43.568;22.256;2022-07-03T09:30:55;9.52;;;4.90;;
57225;SDS011;43082;43.568;22.256;2022-07-03T09:33:22;7.83;;;5.10;;
57225;SDS011;43082;43.568;22.256;2022-07-03T09:35:52;7.63;;;4.10;;
57225;SDS011;43082;43.568;22.256;2022-07-03T09:38:18;8.50;;;4.75;;
57225;SDS011;43082;43.568;22.256;2022-07-03T09:40:54;10.75;;;4.60;;
57225;SDS011;43082;43.568;22.256;2022-07-03T09:43:23;9.10;;;5.82;;
57225;SDS011;43082;43.568;22.256;2022-07-03T09:45:55;7.80;;;4.30;;
57225;SDS011;43082;43.568;22.256;2022-07-03T09:48:31;8.43;;;4.25;;
57225;SDS011;43082;43.568;22.256;2022-07-03T09:53:46;8.15;;;4.30;;
57225;SDS011;43082;43.568;22.256;2022-07-03T09:56:22;8.48;;;4.07;;
57225;SDS011;43082;43.568;22.256;2022-07-03T09:59:34;9.02;;;4.07;;
57225;SDS011;43082;43.568;22.256;2022-07-03T10:01:41;10.63;;;5.05;;
57225;SDS011;43082;43.568;22.256;2022-07-03T10:04:09;8.23;;;5.32;;
57225;SDS011;43082;43.568;22.256;2022-07-03T10:07:00;17.88;;;9.10;;
57225;SDS011;43082;43.568;22.256;2022-07-03T10:09:33;9.60;;;4.53;;
57225;SDS011;43082;43.568;22.256;2022-07-03T10:11:59;7.70;;;4.40;;
57225;SDS011;43082;43.568;22.256;2022-07-03T10:14:32;7.85;;;4.38;;
57225;SDS011;43082;43.568;22.256;2022-07-03T10:16:58;10.20;;;5.05;;
57225;SDS011;43082;43.568;22.256;2022-07-03T10:19:27;7.50;;;4.88;;
57225;SDS011;43082;43.568;22.256;2022-07-03T10:22:00;10.90;;;5.15;;
57225;SDS011;43082;43.568;22.256;2022-07-03T10:24:28;7.72;;;4.45;;
57225;SDS011;43082;43.568;22.256;2022-07-03T10:26:54;7.75;;;4.50;;
57225;SDS011;43082;43.568;22.256;2022-07-03T10:29:22;7.47;;;4.85;;
57225;SDS011;43082;43.568;22.256;2022-07-03T10:31:48;9.35;;;4.70;;
57225;SDS011;43082;43.568;22.256;2022-07-03T10:34:18;7.78;;;5.13;;
57225;SDS011;43082;43.568;22.256;2022-07-03T10:36:45;12.20;;;4.90;;
57225;SDS011;43082;43.568;22.256;2022-07-03T10:39:14;9.32;;;4.72;;
57225;SDS011;43082;43.568;22.256;2022-07-03T10:41:45;7.57;;;4.32;;
57225;SDS011;43082;43.568;22.256;2022-07-03T10:44:31;12.20;;;7.65;;
57225;SDS011;43082;43.568;22.256;2022-07-03T10:52:38;7.97;;;5.38;;
57225;SDS011;43082;43.568;22.256;2022-07-03T10:55:04;9.50;;;4.85;;
57225;SDS011;43082;43.568;22.256;2022-07-03T10:57:32;9.20;;;4.70;;
57225;SDS011;43082;43.568;22.256;2022-07-03T10:59:58;10.43;;;7.20;;
57225;SDS011;43082;43.568;22.256;2022-07-03T11:07:22;6.88;;;4.60;;
57225;SDS011;43082;43.568;22.256;2022-07-03T11:20:33;9.18;;;4.90;;
57225;SDS011;43082;43.568;22.256;2022-07-03T11:23:03;11.52;;;5.53;;
57225;SDS011;43082;43.568;22.256;2022-07-03T11:25:48;8.40;;;4.95;;
57225;SDS011;43082;43.568;22.256;2022-07-03T11:36:08;35.45;;;5.82;;
57225;SDS011;43082;43.568;22.256;2022-07-03T11:38:34;7.43;;;2.50;;
57225;SDS011;43082;43.568;22.256;2022-07-03T11:41:01;11.73;;;3.92;;
57225;SDS011;43082;43.568;22.256;2022-07-03T11:43:28;6.70;;;3.05;;
57225;SDS011;43082;43.568;22.256;2022-07-03T11:45:53;7.68;;;2.25;;
57225;SDS011;43082;43.568;22.256;2022-07-03T11:48:22;5.93;;;2.60;;
57225;SDS011;43082;43.568;22.256;2022-07-03T11:50:49;7.82;;;3.10;;
57225;SDS011;43082;43.568;22.256;2022-07-03T11:53:18;9.32;;;3.80;;
57225;SDS011;43082;43.568;22.256;2022-07-03T11:55:52;14.02;;;5.13;;
57225;SDS011;43082;43.568;22.256;2022-07-03T11:58:22;10.80;;;4.47;;
57225;SDS011;43082;43.568;22.256;2022-07-03T12:00:49;8.85;;;4.00;;
57225;SDS011;43082;43.568;22.256;2022-07-03T12:03:23;12.20;;;4.25;;
57225;SDS011;43082;43.568;22.256;2022-07-03T12:05:51;8.30;;;4.05;;
57225;SDS011;43082;43.568;22.256;2022-07-03T12:08:32;10.43;;;4.60;;
57225;SDS011;43082;43.568;22.256;2022-07-03T12:11:00;8.10;;;4.63;;
57225;SDS011;43082;43.568;22.256;2022-07-03T12:13:28;6.93;;;4.25;;
57225;SDS011;43082;43.568;22.256;2022-07-03T12:16:11;10.40;;;5.57;;
57225;SDS011;43082;43.568;22.256;2022-07-03T12:21:09;8.52;;;4.40;;
57225;SDS011;43082;43.568;22.256;2022-07-03T12:23:44;8.80;;;5.00;;
57225;SDS011;43082;43.568;22.256;2022-07-03T12:26:11;8.43;;;4.43;;
57225;SDS011;43082;43.568;22.256;2022-07-03T12:28:38;8.13;;;4.38;;
57225;SDS011;43082;43.568;22.256;2022-07-03T12:31:04;12.13;;;5.05;;
57225;SDS011;43082;43.568;22.256;2022-07-03T12:33:30;8.13;;;4.68;;
57225;SDS011;43082;43.568;22.256;2022-07-03T12:36:07;9.63;;;5.25;;
57225;SDS011;43082;43.568;22.256;2022-07-03T12:38:35;8.33;;;5.23;;
57225;SDS011;43082;43.568;22.256;2022-07-03T12:41:05;8.00;;;4.95;;
57225;SDS011;43082;43.568;22.256;2022-07-03T12:43:41;12.07;;;5.40;;
57225;SDS011;43082;43.568;22.256;2022-07-03T12:48:58;10.93;;;5.38;;
57225;SDS011;43082;43.568;22.256;2022-07-03T13:00:04;11.23;;;6.03;;
57225;SDS011;43082;43.568;22.256;2022-07-03T13:02:40;11.50;;;6.93;;
57225;SDS011;43082;43.568;22.256;2022-07-03T13:05:24;9.80;;;6.90;;
57225;SDS011;43082;43.568;22.256;2022-07-03T13:10:18;8.50;;;6.05;;
57225;SDS011;43082;43.568;22.256;2022-07-03T13:12:50;10.23;;;6.07;;
57225;SDS011;43082;43.568;22.256;2022-07-03T13:15:18;9.77;;;5.78;;
57225;SDS011;43082;43.568;22.256;2022-07-03T13:20:18;12.13;;;6.10;;
57225;SDS011;43082;43.568;22.256;2022-07-03T13:22:51;10.50;;;6.32;;
57225;SDS011;43082;43.568;22.256;2022-07-03T13:25:18;12.13;;;6.45;;
57225;SDS011;43082;43.568;22.256;2022-07-03T13:27:43;9.65;;;5.82;;
57225;SDS011;43082;43.568;22.256;2022-07-03T13:30:10;8.93;;;6.70;;
57225;SDS011;43082;43.568;22.256;2022-07-03T13:32:39;10.60;;;6.75;;
57225;SDS011;43082;43.568;22.256;2022-07-03T13:35:05;11.80;;;6.70;;
57225;SDS011;43082;43.568;22.256;2022-07-03T13:37:32;13.32;;;7.03;;
57225;SDS011;43082;43.568;22.256;2022-07-03T13:39:58;9.77;;;6.57;;
57225;SDS011;43082;43.568;22.256;2022-07-03T13:42:24;10.30;;;6.53;;
57225;SDS011;43082;43.568;22.256;2022-07-03T13:44:49;10.93;;;6.55;;
57225;SDS011;43082;43.568;22.256;2022-07-03T13:47:15;11.32;;;6.40;;
57225;SDS011;43082;43.568;22.256;2022-07-03T13:49:41;10.65;;;7.00;;
57225;SDS011;43082;43.568;22.256;2022-07-03T13:52:06;10.48;;;6.70;;
57225;SDS011;43082;43.568;22.256;2022-07-03T13:54:32;17.80;;;8.05;;
57225;SDS011;43082;43.568;22.256;2022-07-03T13:56:57;10.27;;;7.00;;
57225;SDS011;43082;43.568;22.256;2022-07-03T13:59:23;11.70;;;7.30;;
57225;SDS011;43082;43.568;22.256;2022-07-03T14:01:48;11.63;;;6.95;;
57225;SDS011;43082;43.568;22.256;2022-07-03T14:04:14;14.55;;;8.13;;
57225;SDS011;43082;43.568;22.256;2022-07-03T14:06:39;12.38;;;8.02;;
57225;SDS011;43082;43.568;22.256;2022-07-03T14:09:04;13.85;;;8.60;;
57225;SDS011;43082;43.568;22.256;2022-07-03T14:11:30;26.50;;;17.48;;
57225;SDS011;43082;43.568;22.256;2022-07-03T14:13:56;22.98;;;15.50;;
57225;SDS011;43082;43.568;22.256;2022-07-03T14:16:21;15.05;;;9.82;;
57225;SDS011;43082;43.568;22.256;2022-07-03T14:18:47;10.82;;;7.53;;
57225;SDS011;43082;43.568;22.256;2022-07-03T14:21:13;17.08;;;8.00;;
57225;SDS011;43082;43.568;22.256;2022-07-03T14:23:38;12.00;;;7.30;;
57225;SDS011;43082;43.568;22.256;2022-07-03T14:26:04;13.15;;;7.30;;
57225;SDS011;43082;43.568;22.256;2022-07-03T14:28:29;9.85;;;6.72;;
57225;SDS011;43082;43.568;22.256;2022-07-03T14:31:13;15.25;;;7.10;;
57225;SDS011;43082;43.568;22.256;2022-07-03T14:33:44;11.05;;;6.95;;
57225;SDS011;43082;43.568;22.256;2022-07-03T14:36:10;15.00;;;7.88;;
57225;SDS011;43082;43.568;22.256;2022-07-03T14:38:36;13.68;;;8.23;;
57225;SDS011;43082;43.568;22.256;2022-07-03T14:41:01;14.13;;;7.65;;
57225;SDS011;43082;43.568;22.256;2022-07-03T14:43:27;12.13;;;7.75;;
57225;SDS011;43082;43.568;22.256;2022-07-03T14:45:52;11.75;;;7.05;;
57225;SDS011;43082;43.568;22.256;2022-07-03T14:48:18;11.02;;;7.05;;
57225;SDS011;43082;43.568;22.256;2022-07-03T14:50:43;14.02;;;9.57;;
57225;SDS011;43082;43.568;22.256;2022-07-03T14:53:09;16.00;;;8.05;;
57225;SDS011;43082;43.568;22.256;2022-07-03T14:55:36;11.88;;;7.15;;
57225;SDS011;43082;43.568;22.256;2022-07-03T14:58:15;12.18;;;7.47;;
57225;SDS011;43082;43.568;22.256;2022-07-03T15:00:45;14.43;;;7.45;;
57225;SDS011;43082;43.568;22.256;2022-07-03T15:03:33;10.73;;;7.03;;
57225;SDS011;43082;43.568;22.256;2022-07-03T15:06:07;12.13;;;7.70;;
57225;SDS011;43082;43.568;22.256;2022-07-03T15:11:02;11.27;;;7.80;;
57225;SDS011;43082;43.568;22.256;2022-07-03T15:13:30;14.23;;;7.35;;
57225;SDS011;43082;43.568;22.256;2022-07-03T15:15:58;11.43;;;7.28;;
57225;SDS011;43082;43.568;22.256;2022-07-03T15:18:23;15.60;;;10.93;;
57225;SDS011;43082;43.568;22.256;2022-07-03T15:20:50;11.00;;;7.65;;
57225;SDS011;43082;43.568;22.256;2022-07-03T15:23:17;12.25;;;7.35;;
57225;SDS011;43082;43.568;22.256;2022-07-03T15:25:44;12.05;;;7.55;;
57225;SDS011;43082;43.568;22.256;2022-07-03T15:28:10;11.70;;;7.10;;
57225;SDS011;43082;43.568;22.256;2022-07-03T15:30:36;10.88;;;6.70;;
57225;SDS011;43082;43.568;22.256;2022-07-03T15:33:02;14.57;;;8.23;;
57225;SDS011;43082;43.568;22.256;2022-07-03T15:35:27;8.60;;;6.40;;
57225;SDS011;43082;43.568;22.256;2022-07-03T15:37:56;9.57;;;7.00;;
57225;SDS011;43082;43.568;22.256;2022-07-03T15:46:34;10.30;;;6.35;;
57225;SDS011;43082;43.568;22.256;2022-07-03T15:54:23;8.32;;;6.13;;
57225;SDS011;43082;43.568;22.256;2022-07-03T15:56:54;9.68;;;5.93;;
57225;SDS011;43082;43.568;22.256;2022-07-03T15:59:22;13.10;;;5.88;;
57225;SDS011;43082;43.568;22.256;2022-07-03T16:01:52;9.65;;;5.85;;
57225;SDS011;43082;43.568;22.256;2022-07-03T16:07:20;9.10;;;5.35;;
57225;SDS011;43082;43.568;22.256;2022-07-03T16:09:47;11.15;;;5.53;;
57225;SDS011;43082;43.568;22.256;2022-07-03T16:12:14;8.50;;;5.43;;
57225;SDS011;43082;43.568;22.256;2022-07-03T16:14:55;9.80;;;5.60;;
57225;SDS011;43082;43.568;22.256;2022-07-03T16:17:22;10.57;;;5.63;;
57225;SDS011;43082;43.568;22.256;2022-07-03T16:19:48;8.73;;;6.00;;
57225;SDS011;43082;43.568;22.256;2022-07-03T16:22:14;11.27;;;6.57;;
57225;SDS011;43082;43.568;22.256;2022-07-03T16:24:40;9.57;;;6.13;;